sensor_id;sensor_type;location;lat;lon;timestamp;pressure;altitude;pressure_sealevel;temperature;humidity
61035;BME280;46916;40.564;-7.958;2022-10-31T00:01:54;97264.97;;;15.18;76.89
61035;BME280;46916;40.564;-7.958;2022-10-31T00:03:55;97269.78;;;15.15;76.96
61035;BME280;46916;40.564;-7.958;2022-10-31T00:05:56;97272.06;;;15.18;77.05
61035;BME280;46916;40.564;-7.958;2022-10-31T00:07:56;97276.53;;;15.17;76.74
61035;BME280;46916;40.564;-7.958;2022-10-31T00:09:57;97274.88;;;15.16;76.84
61035;BME280;46916;40.564;-7.958;2022-10-31T00:11:58;97276.53;;;15.17;76.92
61035;BME280;46916;40.564;-7.958;2022-10-31T00:13:59;97275.69;;;15.17;77.15
61035;BME280;46916;40.564;-7.958;2022-10-31T00:15:59;97267.47;;;15.20;77.05
61035;BME280;46916;40.564;-7.958;2022-10-31T00:18:01;97257.25;;;15.17;77.61
61035;BME280;46916;40.564;-7.958;2022-10-31T00:20:02;97249.16;;;15.18;77.84
61035;BME280;46916;40.564;-7.958;2022-10-31T00:22:03;97257.06;;;15.18;77.94
61035;BME280;46916;40.564;-7.958;2022-10-31T00:24:04;97255.94;;;15.21;78.00
61035;BME280;46916;40.564;-7.958;2022-10-31T00:26:05;97244.22;;;15.23;77.48
61035;BME280;46916;40.564;-7.958;2022-10-31T00:28:08;97243.75;;;15.28;77.33
61035;BME280;46916;40.564;-7.958;2022-10-31T00:30:11;97242.91;;;15.27;77.10
61035;BME280;46916;40.564;-7.958;2022-10-31T00:32:11;97250.66;;;15.29;77.04
61035;BME280;46916;40.564;-7.958;2022-10-31T00:34:12;97246.06;;;15.31;76.74
61035;BME280;46916;40.564;-7.958;2022-10-31T00:36:15;97245.22;;;15.30;76.68
61035;BME280;46916;40.564;-7.958;2022-10-31T00:38:16;97243.25;;;15.32;76.54
61035;BME280;46916;40.564;-7.958;2022-10-31T00:40:16;97243.06;;;15.34;76.51
61035;BME280;46916;40.564;-7.958;2022-10-31T00:42:17;97242.41;;;15.32;76.95
61035;BME280;46916;40.564;-7.958;2022-10-31T00:44:18;97244.88;;;15.33;77.00
61035;BME280;46916;40.564;-7.958;2022-10-31T00:46:20;97249.03;;;15.36;77.19
61035;BME280;46916;40.564;-7.958;2022-10-31T00:48:21;97252.66;;;15.35;77.20
61035;BME280;46916;40.564;-7.958;2022-10-31T00:50:22;97249.16;;;15.34;77.59
61035;BME280;46916;40.564;-7.958;2022-10-31T00:52:23;97248.19;;;15.35;77.71
61035;BME280;46916;40.564;-7.958;2022-10-31T00:54:24;97245.72;;;15.34;77.97
61035;BME280;46916;40.564;-7.958;2022-10-31T00:56:24;97250.97;;;15.34;78.11
61035;BME280;46916;40.564;-7.958;2022-10-31T00:58:25;97254.63;;;15.33;78.13
61035;BME280;46916;40.564;-7.958;2022-10-31T01:00:26;97256.44;;;15.32;78.39
61035;BME280;46916;40.564;-7.958;2022-10-31T01:02:27;97261.88;;;15.31;78.82
61035;BME280;46916;40.564;-7.958;2022-10-31T01:04:28;97258.91;;;15.26;78.99
61035;BME280;46916;40.564;-7.958;2022-10-31T01:06:31;97264.00;;;15.19;79.33
61035;BME280;46916;40.564;-7.958;2022-10-31T01:08:32;97259.53;;;15.11;80.12
61035;BME280;46916;40.564;-7.958;2022-10-31T01:10:33;97256.41;;;15.08;80.36
61035;BME280;46916;40.564;-7.958;2022-10-31T01:12:38;97257.91;;;15.10;80.37
61035;BME280;46916;40.564;-7.958;2022-10-31T01:14:45;97252.78;;;15.09;80.43
61035;BME280;46916;40.564;-7.958;2022-10-31T01:16:46;97252.94;;;15.07;80.75
61035;BME280;46916;40.564;-7.958;2022-10-31T01:18:48;97253.75;;;15.08;80.60
61035;BME280;46916;40.564;-7.958;2022-10-31T01:21:10;97250.81;;;15.11;80.53
61035;BME280;46916;40.564;-7.958;2022-10-31T01:23:10;97247.69;;;15.16;80.58
61035;BME280;46916;40.564;-7.958;2022-10-31T01:25:11;97242.91;;;15.19;80.33
61035;BME280;46916;40.564;-7.958;2022-10-31T01:27:12;97239.09;;;15.22;80.71
61035;BME280;46916;40.564;-7.958;2022-10-31T01:29:13;97245.06;;;15.24;80.76
61035;BME280;46916;40.564;-7.958;2022-10-31T01:31:16;97244.06;;;15.25;80.49
61035;BME280;46916;40.564;-7.958;2022-10-31T01:33:17;97233.50;;;15.25;80.16
61035;BME280;46916;40.564;-7.958;2022-10-31T01:35:17;97234.00;;;15.28;80.25
61035;BME280;46916;40.564;-7.958;2022-10-31T01:37:18;97229.38;;;15.30;79.91
61035;BME280;46916;40.564;-7.958;2022-10-31T01:39:19;97228.41;;;15.31;79.70
61035;BME280;46916;40.564;-7.958;2022-10-31T01:41:22;97223.13;;;15.31;80.08
61035;BME280;46916;40.564;-7.958;2022-10-31T01:43:23;97222.13;;;15.32;80.23
61035;BME280;46916;40.564;-7.958;2022-10-31T01:45:24;97227.09;;;15.35;80.42
61035;BME280;46916;40.564;-7.958;2022-10-31T01:47:42;97220.00;;;15.36;80.59
61035;BME280;46916;40.564;-7.958;2022-10-31T01:49:50;97217.34;;;15.36;80.81
61035;BME280;46916;40.564;-7.958;2022-10-31T01:52:06;97212.09;;;15.36;81.01
61035;BME280;46916;40.564;-7.958;2022-10-31T01:54:12;97211.25;;;15.35;81.47
61035;BME280;46916;40.564;-7.958;2022-10-31T01:56:16;97206.81;;;15.36;81.86
61035;BME280;46916;40.564;-7.958;2022-10-31T01:58:21;97212.09;;;15.36;82.12
61035;BME280;46916;40.564;-7.958;2022-10-31T02:00:23;97212.41;;;15.33;82.31
61035;BME280;46916;40.564;-7.958;2022-10-31T02:02:25;97210.91;;;15.30;82.33
61035;BME280;46916;40.564;-7.958;2022-10-31T02:04:27;97211.75;;;15.31;82.49
61035;BME280;46916;40.564;-7.958;2022-10-31T02:06:58;97204.81;;;15.30;82.51
61035;BME280;46916;40.564;-7.958;2022-10-31T02:09:04;97202.16;;;15.30;82.54
61035;BME280;46916;40.564;-7.958;2022-10-31T02:11:06;97199.53;;;15.30;82.45
61035;BME280;46916;40.564;-7.958;2022-10-31T02:13:08;97195.06;;;15.30;82.43
61035;BME280;46916;40.564;-7.958;2022-10-31T02:15:17;97193.28;;;15.31;82.64
61035;BME280;46916;40.564;-7.958;2022-10-31T02:17:17;97190.47;;;15.32;82.91
61035;BME280;46916;40.564;-7.958;2022-10-31T02:19:27;97186.00;;;15.33;82.68
61035;BME280;46916;40.564;-7.958;2022-10-31T02:21:52;97190.97;;;15.36;83.33
61035;BME280;46916;40.564;-7.958;2022-10-31T02:28:40;97186.34;;;15.38;83.18
61035;BME280;46916;40.564;-7.958;2022-10-31T02:37:57;97192.28;;;15.40;84.13
61035;BME280;46916;40.564;-7.958;2022-10-31T02:42:36;97189.78;;;15.39;84.68
61035;BME280;46916;40.564;-7.958;2022-10-31T02:44:48;97185.69;;;15.36;85.21
61035;BME280;46916;40.564;-7.958;2022-10-31T02:47:29;97191.47;;;15.31;85.57
61035;BME280;46916;40.564;-7.958;2022-10-31T02:49:37;97193.59;;;15.28;85.77
61035;BME280;46916;40.564;-7.958;2022-10-31T02:51:39;97198.38;;;15.24;86.36
61035;BME280;46916;40.564;-7.958;2022-10-31T02:53:40;97206.47;;;15.23;86.51
61035;BME280;46916;40.564;-7.958;2022-10-31T02:55:48;97203.00;;;15.22;86.55
61035;BME280;46916;40.564;-7.958;2022-10-31T02:58:01;97211.41;;;15.18;86.94
61035;BME280;46916;40.564;-7.958;2022-10-31T03:00:05;97207.28;;;15.15;87.33
61035;BME280;46916;40.564;-7.958;2022-10-31T03:04:49;97194.25;;;15.05;88.22
61035;BME280;46916;40.564;-7.958;2022-10-31T03:07:19;97191.97;;;15.02;88.55
61035;BME280;46916;40.564;-7.958;2022-10-31T03:09:40;97186.00;;;15.00;88.85
61035;BME280;46916;40.564;-7.958;2022-10-31T03:12:14;97189.31;;;14.94;89.46
61035;BME280;46916;40.564;-7.958;2022-10-31T03:14:38;97160.13;;;14.96;89.14
61035;BME280;46916;40.564;-7.958;2022-10-31T03:16:48;97155.03;;;14.94;89.63
61035;BME280;46916;40.564;-7.958;2022-10-31T03:19:01;97157.97;;;14.91;89.74
61035;BME280;46916;40.564;-7.958;2022-10-31T03:21:05;97154.84;;;14.96;89.92
61035;BME280;46916;40.564;-7.958;2022-10-31T03:23:14;97147.44;;;14.99;89.92
61035;BME280;46916;40.564;-7.958;2022-10-31T03:25:16;97144.00;;;14.99;90.24
61035;BME280;46916;40.564;-7.958;2022-10-31T03:27:21;97140.84;;;14.95;90.91
61035;BME280;46916;40.564;-7.958;2022-10-31T03:29:27;97126.66;;;14.96;90.90
61035;BME280;46916;40.564;-7.958;2022-10-31T03:31:33;97113.47;;;14.96;91.13
61035;BME280;46916;40.564;-7.958;2022-10-31T03:33:35;97115.63;;;14.93;91.50
61035;BME280;46916;40.564;-7.958;2022-10-31T03:35:41;97114.31;;;14.89;91.65
61035;BME280;46916;40.564;-7.958;2022-10-31T03:37:44;97117.13;;;14.87;91.84
61035;BME280;46916;40.564;-7.958;2022-10-31T03:39:49;97118.75;;;14.88;91.77
61035;BME280;46916;40.564;-7.958;2022-10-31T03:42:06;97116.94;;;14.89;91.81
61035;BME280;46916;40.564;-7.958;2022-10-31T03:44:12;97112.97;;;14.93;91.66
61035;BME280;46916;40.564;-7.958;2022-10-31T03:46:15;97123.03;;;14.97;91.78
61035;BME280;46916;40.564;-7.958;2022-10-31T03:48:19;97123.38;;;14.94;92.11
61035;BME280;46916;40.564;-7.958;2022-10-31T03:50:21;97104.94;;;14.94;92.15
61035;BME280;46916;40.564;-7.958;2022-10-31T03:52:28;97099.16;;;14.91;92.14
61035;BME280;46916;40.564;-7.958;2022-10-31T03:54:40;97100.28;;;14.88;92.00
61035;BME280;46916;40.564;-7.958;2022-10-31T03:56:50;97105.25;;;14.91;91.79
61035;BME280;46916;40.564;-7.958;2022-10-31T03:59:01;97086.63;;;14.93;91.82
61035;BME280;46916;40.564;-7.958;2022-10-31T04:01:06;97081.53;;;14.91;91.99
61035;BME280;46916;40.564;-7.958;2022-10-31T04:03:16;97076.25;;;14.91;92.33
61035;BME280;46916;40.564;-7.958;2022-10-31T04:05:20;97083.84;;;14.86;92.97
61035;BME280;46916;40.564;-7.958;2022-10-31T04:07:26;97090.06;;;14.85;93.05
61035;BME280;46916;40.564;-7.958;2022-10-31T04:09:29;97090.44;;;14.82;93.30
61035;BME280;46916;40.564;-7.958;2022-10-31T04:11:36;97084.97;;;14.83;93.37
61035;BME280;46916;40.564;-7.958;2022-10-31T04:14:02;97090.06;;;14.85;93.69
61035;BME280;46916;40.564;-7.958;2022-10-31T04:16:05;97083.47;;;14.89;93.39
61035;BME280;46916;40.564;-7.958;2022-10-31T04:18:07;97075.44;;;14.91;93.44
61035;BME280;46916;40.564;-7.958;2022-10-31T04:20:10;97078.72;;;14.93;93.33
61035;BME280;46916;40.564;-7.958;2022-10-31T04:22:11;97092.72;;;14.93;93.52
61035;BME280;46916;40.564;-7.958;2022-10-31T04:24:12;97095.53;;;15.00;93.31
61035;BME280;46916;40.564;-7.958;2022-10-31T04:26:13;97094.19;;;15.04;93.40
61035;BME280;46916;40.564;-7.958;2022-10-31T04:28:17;97094.03;;;15.05;93.25
61035;BME280;46916;40.564;-7.958;2022-10-31T04:30:18;97089.41;;;15.07;93.19
61035;BME280;46916;40.564;-7.958;2022-10-31T04:32:19;97092.06;;;15.07;92.98
61035;BME280;46916;40.564;-7.958;2022-10-31T04:34:20;97098.97;;;15.08;92.95
61035;BME280;46916;40.564;-7.958;2022-10-31T04:36:20;97097.34;;;15.07;92.96
61035;BME280;46916;40.564;-7.958;2022-10-31T04:38:22;97095.50;;;15.08;92.86
61035;BME280;46916;40.564;-7.958;2022-10-31T04:40:24;97099.97;;;15.07;92.86
61035;BME280;46916;40.564;-7.958;2022-10-31T04:43:00;97096.84;;;15.04;93.21
61035;BME280;46916;40.564;-7.958;2022-10-31T04:45:02;97084.47;;;15.04;93.15
61035;BME280;46916;40.564;-7.958;2022-10-31T04:47:05;97078.69;;;15.01;93.15
61035;BME280;46916;40.564;-7.958;2022-10-31T04:49:06;97092.06;;;14.99;93.33
61035;BME280;46916;40.564;-7.958;2022-10-31T04:51:06;97094.69;;;14.99;93.44
61035;BME280;46916;40.564;-7.958;2022-10-31T04:53:08;97094.38;;;15.02;93.14
61035;BME280;46916;40.564;-7.958;2022-10-31T04:55:18;97086.28;;;15.04;93.26
61035;BME280;46916;40.564;-7.958;2022-10-31T04:57:48;97097.34;;;15.07;93.31
61035;BME280;46916;40.564;-7.958;2022-10-31T04:59:50;97099.66;;;15.10;93.18
61035;BME280;46916;40.564;-7.958;2022-10-31T05:01:50;97106.38;;;15.13;92.97
61035;BME280;46916;40.564;-7.958;2022-10-31T05:03:56;97108.19;;;15.13;92.84
61035;BME280;46916;40.564;-7.958;2022-10-31T05:05:57;97117.13;;;15.11;93.21
61035;BME280;46916;40.564;-7.958;2022-10-31T05:07:58;97124.22;;;15.11;93.25
61035;BME280;46916;40.564;-7.958;2022-10-31T05:09:59;97151.41;;;15.11;93.11
61035;BME280;46916;40.564;-7.958;2022-10-31T05:12:00;97152.72;;;15.07;93.23
61035;BME280;46916;40.564;-7.958;2022-10-31T05:14:19;97147.94;;;15.03;93.25
61035;BME280;46916;40.564;-7.958;2022-10-31T05:16:38;97144.94;;;14.90;93.16
61035;BME280;46916;40.564;-7.958;2022-10-31T05:19:08;97131.28;;;14.86;93.69
61035;BME280;46916;40.564;-7.958;2022-10-31T05:21:37;97141.84;;;14.86;93.97
61035;BME280;46916;40.564;-7.958;2022-10-31T05:23:38;97147.13;;;14.86;94.17
61035;BME280;46916;40.564;-7.958;2022-10-31T05:25:41;97140.66;;;14.89;93.88
61035;BME280;46916;40.564;-7.958;2022-10-31T05:27:44;97141.34;;;14.91;93.79
61035;BME280;46916;40.564;-7.958;2022-10-31T05:29:46;97127.34;;;14.90;93.93
61035;BME280;46916;40.564;-7.958;2022-10-31T05:31:47;97115.28;;;14.88;94.36
61035;BME280;46916;40.564;-7.958;2022-10-31T05:34:08;97095.34;;;14.85;94.71
61035;BME280;46916;40.564;-7.958;2022-10-31T05:36:44;97086.28;;;14.88;94.86
61035;BME280;46916;40.564;-7.958;2022-10-31T05:38:50;97088.59;;;14.91;95.03
61035;BME280;46916;40.564;-7.958;2022-10-31T05:41:04;97093.22;;;14.89;94.70
61035;BME280;46916;40.564;-7.958;2022-10-31T05:43:07;97083.66;;;14.88;95.27
61035;BME280;46916;40.564;-7.958;2022-10-31T05:45:10;97092.38;;;14.88;94.72
61035;BME280;46916;40.564;-7.958;2022-10-31T05:47:27;97099.47;;;14.88;95.10
61035;BME280;46916;40.564;-7.958;2022-10-31T05:49:27;97113.16;;;14.91;94.95
61035;BME280;46916;40.564;-7.958;2022-10-31T05:51:47;97109.53;;;14.92;94.79
61035;BME280;46916;40.564;-7.958;2022-10-31T05:53:48;97118.13;;;14.94;94.77
61035;BME280;46916;40.564;-7.958;2022-10-31T05:55:48;97122.22;;;14.97;94.84
61035;BME280;46916;40.564;-7.958;2022-10-31T05:57:53;97125.66;;;14.97;94.85
61035;BME280;46916;40.564;-7.958;2022-10-31T05:59:55;97130.63;;;15.00;95.03
61035;BME280;46916;40.564;-7.958;2022-10-31T06:01:57;97127.97;;;15.00;95.20
61035;BME280;46916;40.564;-7.958;2022-10-31T06:04:27;97117.13;;;15.03;95.30
61035;BME280;46916;40.564;-7.958;2022-10-31T06:06:28;97119.44;;;15.06;95.11
61035;BME280;46916;40.564;-7.958;2022-10-31T06:08:29;97124.34;;;15.09;95.48
61035;BME280;46916;40.564;-7.958;2022-10-31T06:10:32;97118.94;;;15.11;95.75
61035;BME280;46916;40.564;-7.958;2022-10-31T06:12:34;97108.19;;;15.13;95.47
61035;BME280;46916;40.564;-7.958;2022-10-31T06:14:52;97106.38;;;15.13;95.55
61035;BME280;46916;40.564;-7.958;2022-10-31T06:16:56;97102.94;;;15.13;95.76
61035;BME280;46916;40.564;-7.958;2022-10-31T06:19:15;97109.03;;;15.13;95.61
61035;BME280;46916;40.564;-7.958;2022-10-31T06:21:16;97111.84;;;15.11;95.63
61035;BME280;46916;40.564;-7.958;2022-10-31T06:23:17;97105.88;;;15.09;95.66
61035;BME280;46916;40.564;-7.958;2022-10-31T06:25:22;97110.53;;;15.07;96.07
61035;BME280;46916;40.564;-7.958;2022-10-31T06:27:24;97116.78;;;15.06;96.35
61035;BME280;46916;40.564;-7.958;2022-10-31T06:29:25;97097.34;;;15.07;96.33
61035;BME280;46916;40.564;-7.958;2022-10-31T06:31:38;97090.41;;;15.06;96.66
61035;BME280;46916;40.564;-7.958;2022-10-31T06:33:41;97091.75;;;15.02;96.87
61035;BME280;46916;40.564;-7.958;2022-10-31T06:35:46;97095.19;;;15.03;96.84
61035;BME280;46916;40.564;-7.958;2022-10-31T06:37:53;97098.47;;;15.05;96.63
61035;BME280;46916;40.564;-7.958;2022-10-31T06:40:14;97106.56;;;15.03;96.66
61035;BME280;46916;40.564;-7.958;2022-10-31T06:42:35;97112.84;;;15.02;96.57
61035;BME280;46916;40.564;-7.958;2022-10-31T06:44:36;97110.19;;;15.02;96.48
61035;BME280;46916;40.564;-7.958;2022-10-31T06:47:00;97119.44;;;15.06;96.61
61035;BME280;46916;40.564;-7.958;2022-10-31T06:49:21;97115.47;;;15.10;96.32
61035;BME280;46916;40.564;-7.958;2022-10-31T06:51:27;97110.84;;;15.13;96.05
61035;BME280;46916;40.564;-7.958;2022-10-31T06:53:28;97117.25;;;15.10;96.36
61035;BME280;46916;40.564;-7.958;2022-10-31T06:55:30;97123.38;;;15.10;96.46
61035;BME280;46916;40.564;-7.958;2022-10-31T06:57:31;97125.03;;;15.11;96.62
61035;BME280;46916;40.564;-7.958;2022-10-31T06:59:32;97128.31;;;15.14;96.46
61035;BME280;46916;40.564;-7.958;2022-10-31T07:01:48;97125.03;;;15.11;96.58
61035;BME280;46916;40.564;-7.958;2022-10-31T07:03:48;97127.81;;;15.10;96.66
61035;BME280;46916;40.564;-7.958;2022-10-31T07:05:49;97126.03;;;15.10;96.90
61035;BME280;46916;40.564;-7.958;2022-10-31T07:07:58;97132.25;;;15.09;96.73
61035;BME280;46916;40.564;-7.958;2022-10-31T07:09:59;97134.09;;;15.09;97.15
61035;BME280;46916;40.564;-7.958;2022-10-31T07:12:16;97124.53;;;15.08;97.30
61035;BME280;46916;40.564;-7.958;2022-10-31T07:14:25;97129.63;;;15.09;97.22
61035;BME280;46916;40.564;-7.958;2022-10-31T07:16:27;97128.66;;;15.10;97.18
61035;BME280;46916;40.564;-7.958;2022-10-31T07:18:28;97136.41;;;15.12;97.33
61035;BME280;46916;40.564;-7.958;2022-10-31T07:20:30;97137.88;;;15.15;97.03
61035;BME280;46916;40.564;-7.958;2022-10-31T07:22:33;97144.63;;;15.17;96.94
61035;BME280;46916;40.564;-7.958;2022-10-31T07:24:34;97145.44;;;15.18;96.84
61035;BME280;46916;40.564;-7.958;2022-10-31T07:26:50;97150.09;;;15.16;96.81
61035;BME280;46916;40.564;-7.958;2022-10-31T07:28:51;97157.00;;;15.17;97.01
61035;BME280;46916;40.564;-7.958;2022-10-31T07:30:57;97143.16;;;15.15;97.35
61035;BME280;46916;40.564;-7.958;2022-10-31T07:32:58;97122.53;;;15.10;97.59
61035;BME280;46916;40.564;-7.958;2022-10-31T07:35:16;97142.16;;;15.07;98.13
61035;BME280;46916;40.564;-7.958;2022-10-31T07:37:21;97148.44;;;15.06;98.26
61035;BME280;46916;40.564;-7.958;2022-10-31T07:39:22;97144.81;;;15.07;98.38
61035;BME280;46916;40.564;-7.958;2022-10-31T07:41:23;97150.72;;;15.09;98.52
61035;BME280;46916;40.564;-7.958;2022-10-31T07:43:24;97150.41;;;15.13;98.35
61035;BME280;46916;40.564;-7.958;2022-10-31T07:45:43;97154.69;;;15.14;98.34
61035;BME280;46916;40.564;-7.958;2022-10-31T07:48:07;97150.09;;;15.16;98.16
61035;BME280;46916;40.564;-7.958;2022-10-31T07:50:33;97151.06;;;15.15;97.99
61035;BME280;46916;40.564;-7.958;2022-10-31T07:53:06;97155.34;;;15.16;97.90
61035;BME280;46916;40.564;-7.958;2022-10-31T07:55:34;97155.50;;;15.14;98.14
61035;BME280;46916;40.564;-7.958;2022-10-31T07:57:36;97153.03;;;15.13;98.16
61035;BME280;46916;40.564;-7.958;2022-10-31T07:59:37;97153.38;;;15.09;98.58
61035;BME280;46916;40.564;-7.958;2022-10-31T08:01:41;97153.72;;;15.06;98.86
61035;BME280;46916;40.564;-7.958;2022-10-31T08:04:00;97150.72;;;15.01;98.96
61035;BME280;46916;40.564;-7.958;2022-10-31T08:06:19;97148.44;;;14.98;98.95
61035;BME280;46916;40.564;-7.958;2022-10-31T08:08:43;97158.47;;;14.95;99.17
61035;BME280;46916;40.564;-7.958;2022-10-31T08:10:44;97156.66;;;14.95;99.04
61035;BME280;46916;40.564;-7.958;2022-10-31T08:12:45;97135.91;;;14.92;99.48
61035;BME280;46916;40.564;-7.958;2022-10-31T08:14:46;97138.72;;;14.91;100.00
61035;BME280;46916;40.564;-7.958;2022-10-31T08:16:48;97147.44;;;14.83;100.00
61035;BME280;46916;40.564;-7.958;2022-10-31T08:18:49;97133.91;;;14.78;100.00
61035;BME280;46916;40.564;-7.958;2022-10-31T08:20:50;97136.22;;;14.81;100.00
61035;BME280;46916;40.564;-7.958;2022-10-31T08:23:00;97132.41;;;14.67;100.00
61035;BME280;46916;40.564;-7.958;2022-10-31T08:25:01;97139.16;;;14.61;100.00
61035;BME280;46916;40.564;-7.958;2022-10-31T08:27:02;97140.06;;;14.44;100.00
61035;BME280;46916;40.564;-7.958;2022-10-31T08:29:04;97158.84;;;14.41;100.00
61035;BME280;46916;40.564;-7.958;2022-10-31T08:31:07;97152.41;;;14.44;100.00
61035;BME280;46916;40.564;-7.958;2022-10-31T08:33:16;97147.81;;;14.46;100.00
61035;BME280;46916;40.564;-7.958;2022-10-31T08:35:36;97171.03;;;14.42;100.00
61035;BME280;46916;40.564;-7.958;2022-10-31T08:37:56;97181.88;;;14.39;100.00
61035;BME280;46916;40.564;-7.958;2022-10-31T08:39:59;97180.06;;;14.40;100.00
61035;BME280;46916;40.564;-7.958;2022-10-31T08:42:00;97174.66;;;14.41;100.00
61035;BME280;46916;40.564;-7.958;2022-10-31T08:44:02;97181.56;;;14.42;100.00
61035;BME280;46916;40.564;-7.958;2022-10-31T08:46:03;97175.31;;;14.43;100.00
61035;BME280;46916;40.564;-7.958;2022-10-31T08:48:09;97167.75;;;14.48;100.00
61035;BME280;46916;40.564;-7.958;2022-10-31T08:50:11;97172.38;;;14.46;100.00
61035;BME280;46916;40.564;-7.958;2022-10-31T08:52:12;97181.09;;;14.47;100.00
61035;BME280;46916;40.564;-7.958;2022-10-31T08:54:16;97195.63;;;14.51;100.00
61035;BME280;46916;40.564;-7.958;2022-10-31T08:56:29;97208.63;;;14.52;100.00
61035;BME280;46916;40.564;-7.958;2022-10-31T08:58:30;97209.00;;;14.57;100.00
61035;BME280;46916;40.564;-7.958;2022-10-31T09:00:35;97218.72;;;14.65;100.00
61035;BME280;46916;40.564;-7.958;2022-10-31T09:02:45;97217.59;;;14.68;100.00
61035;BME280;46916;40.564;-7.958;2022-10-31T09:04:47;97209.66;;;14.68;100.00
61035;BME280;46916;40.564;-7.958;2022-10-31T09:06:48;97207.00;;;14.59;100.00
61035;BME280;46916;40.564;-7.958;2022-10-31T09:08:49;97211.63;;;14.57;100.00
61035;BME280;46916;40.564;-7.958;2022-10-31T09:10:51;97210.13;;;14.55;100.00
61035;BME280;46916;40.564;-7.958;2022-10-31T09:13:20;97210.13;;;14.55;100.00
61035;BME280;46916;40.564;-7.958;2022-10-31T09:15:56;97214.59;;;14.54;100.00
61035;BME280;46916;40.564;-7.958;2022-10-31T09:17:59;97210.13;;;14.55;100.00
61035;BME280;46916;40.564;-7.958;2022-10-31T09:20:25;97216.53;;;14.52;100.00
61035;BME280;46916;40.564;-7.958;2022-10-31T09:22:26;97220.84;;;14.53;100.00
61035;BME280;46916;40.564;-7.958;2022-10-31T09:24:27;97226.94;;;14.54;100.00
61035;BME280;46916;40.564;-7.958;2022-10-31T09:26:27;97226.75;;;14.55;100.00
61035;BME280;46916;40.564;-7.958;2022-10-31T09:28:51;97229.09;;;14.58;100.00
61035;BME280;46916;40.564;-7.958;2022-10-31T09:30:53;97226.44;;;14.58;100.00
61035;BME280;46916;40.564;-7.958;2022-10-31T09:33:13;97233.06;;;14.63;100.00
61035;BME280;46916;40.564;-7.958;2022-10-31T09:35:18;97222.03;;;14.67;100.00
61035;BME280;46916;40.564;-7.958;2022-10-31T09:37:19;97221.22;;;14.67;100.00
61035;BME280;46916;40.564;-7.958;2022-10-31T09:39:20;97226.47;;;14.67;100.00
61035;BME280;46916;40.564;-7.958;2022-10-31T09:48:51;97231.78;;;14.75;100.00
61035;BME280;46916;40.564;-7.958;2022-10-31T09:51:07;97236.25;;;14.82;100.00
61035;BME280;46916;40.564;-7.958;2022-10-31T09:55:42;97232.81;;;14.98;100.00
61035;BME280;46916;40.564;-7.958;2022-10-31T09:57:45;97229.84;;;15.01;100.00
61035;BME280;46916;40.564;-7.958;2022-10-31T09:59:47;97232.00;;;15.06;100.00
61035;BME280;46916;40.564;-7.958;2022-10-31T10:01:59;97234.16;;;15.10;100.00
61035;BME280;46916;40.564;-7.958;2022-10-31T10:06:35;97226.06;;;15.12;100.00
61035;BME280;46916;40.564;-7.958;2022-10-31T10:09:10;97228.88;;;15.10;100.00
61035;BME280;46916;40.564;-7.958;2022-10-31T10:11:59;97230.53;;;15.11;100.00
61035;BME280;46916;40.564;-7.958;2022-10-31T10:16:31;97238.13;;;15.06;100.00
61035;BME280;46916;40.564;-7.958;2022-10-31T10:18:43;97225.88;;;15.05;100.00
61035;BME280;46916;40.564;-7.958;2022-10-31T10:25:34;97247.66;;;15.07;100.00
61035;BME280;46916;40.564;-7.958;2022-10-31T10:30:13;97241.91;;;15.12;100.00
61035;BME280;46916;40.564;-7.958;2022-10-31T10:32:24;97240.75;;;15.15;100.00
61035;BME280;46916;40.564;-7.958;2022-10-31T10:34:32;97240.75;;;15.15;100.00
61035;BME280;46916;40.564;-7.958;2022-10-31T10:36:42;97244.56;;;15.20;100.00
61035;BME280;46916;40.564;-7.958;2022-10-31T10:40:47;97243.88;;;15.26;100.00
61035;BME280;46916;40.564;-7.958;2022-10-31T10:42:58;97251.66;;;15.28;100.00
61035;BME280;46916;40.564;-7.958;2022-10-31T10:45:19;97251.16;;;15.32;100.00
61035;BME280;46916;40.564;-7.958;2022-10-31T10:47:43;97250.84;;;15.35;100.00
61035;BME280;46916;40.564;-7.958;2022-10-31T10:49:51;97259.41;;;15.38;100.00
61035;BME280;46916;40.564;-7.958;2022-10-31T10:52:02;97259.91;;;15.41;100.00
61035;BME280;46916;40.564;-7.958;2022-10-31T10:59:21;97253.63;;;15.50;100.00
61035;BME280;46916;40.564;-7.958;2022-10-31T11:01:22;97259.59;;;15.52;100.00
61035;BME280;46916;40.564;-7.958;2022-10-31T11:03:23;97269.97;;;15.54;100.00
61035;BME280;46916;40.564;-7.958;2022-10-31T11:05:40;97267.81;;;15.57;100.00
61035;BME280;46916;40.564;-7.958;2022-10-31T11:07:42;97264.19;;;15.58;100.00
61035;BME280;46916;40.564;-7.958;2022-10-31T11:09:43;97263.88;;;15.61;100.00
61035;BME280;46916;40.564;-7.958;2022-10-31T11:11:44;97265.22;;;15.66;100.00
61035;BME280;46916;40.564;-7.958;2022-10-31T11:13:47;97272.81;;;15.69;100.00
61035;BME280;46916;40.564;-7.958;2022-10-31T11:17:55;97276.59;;;15.74;100.00
61035;BME280;46916;40.564;-7.958;2022-10-31T11:22:16;97284.38;;;15.76;100.00
61035;BME280;46916;40.564;-7.958;2022-10-31T11:24:22;97286.00;;;15.77;100.00
61035;BME280;46916;40.564;-7.958;2022-10-31T11:26:23;97276.44;;;15.76;100.00
61035;BME280;46916;40.564;-7.958;2022-10-31T11:28:25;97276.28;;;15.77;100.00
61035;BME280;46916;40.564;-7.958;2022-10-31T11:30:26;97285.69;;;15.80;100.00
61035;BME280;46916;40.564;-7.958;2022-10-31T11:32:27;97285.50;;;15.81;100.00
61035;BME280;46916;40.564;-7.958;2022-10-31T11:34:42;97280.41;;;15.80;100.00
61035;BME280;46916;40.564;-7.958;2022-10-31T11:36:46;97283.03;;;15.80;100.00
61035;BME280;46916;40.564;-7.958;2022-10-31T11:38:48;97288.16;;;15.81;100.00
61035;BME280;46916;40.564;-7.958;2022-10-31T11:41:14;97288.97;;;15.82;100.00
61035;BME280;46916;40.564;-7.958;2022-10-31T11:43:17;97284.50;;;15.82;100.00
61035;BME280;46916;40.564;-7.958;2022-10-31T11:45:31;97295.91;;;15.83;100.00
61035;BME280;46916;40.564;-7.958;2022-10-31T11:47:34;97291.44;;;15.83;100.00
61035;BME280;46916;40.564;-7.958;2022-10-31T11:49:40;97285.19;;;15.84;100.00
61035;BME280;46916;40.564;-7.958;2022-10-31T11:51:41;97291.09;;;15.87;100.00
61035;BME280;46916;40.564;-7.958;2022-10-31T11:53:51;97285.69;;;15.88;100.00